Time;durP1;ratioP1;P1;durP2;ratioP2;P2;SDS_P1;SDS_P2;PMS_P1;PMS_P2;Temp;Humidity;BMP_temperature;BMP_pressure;BME280_temperature;BME280_humidity;BME280_pressure;Samples;Min_cycle;Max_cycle;Signal;HPM_P1;HPM_P2
2022/04/04 00:00:56;;;;;;;13.02;5.43;;;;;;;0.99;60.88;100173.16;4470175;32;34642;-75
2022/04/04 00:03:43;;;;;;;15.43;6.00;;;;;;;1.06;60.08;100174.69;4470905;32;35546;-76
2022/04/04 00:06:33;;;;;;;12.82;5.53;;;;;;;0.70;60.63;100175.72;4470755;32;34606;-76
2022/04/04 00:09:19;;;;;;;13.52;6.62;;;;;;;0.90;60.82;100187.00;4460288;32;34063;-75
2022/04/04 00:12:05;;;;;;;14.95;6.97;;;;;;;0.80;60.81;100185.97;4482356;32;35625;-75
2022/04/04 00:14:52;;;;;;;25.17;8.65;;;;;;;1.11;60.33;100187.47;4482873;32;36011;-75
2022/04/04 00:17:39;;;;;;;24.20;9.70;;;;;;;1.14;59.85;100189.72;4469433;32;34552;-75
2022/04/04 00:20:25;;;;;;;29.25;9.75;;;;;;;1.07;59.70;100191.72;4482713;32;34162;-75
2022/04/04 00:23:14;;;;;;;20.33;8.30;;;;;;;0.82;61.02;100189.22;4473281;32;34625;-75
2022/04/04 00:26:04;;;;;;;19.10;8.25;;;;;;;0.22;61.45;100185.59;4472161;32;35957;-75
2022/04/04 00:28:50;;;;;;;24.92;8.32;;;;;;;0.46;61.42;100180.28;4483389;32;34856;-75
2022/04/04 00:31:37;;;;;;;23.38;8.65;;;;;;;0.24;61.56;100188.06;4471793;32;34321;-75
2022/04/04 00:34:23;;;;;;;20.20;8.15;;;;;;;-0.38;64.64;100188.25;4472484;32;35095;-75
2022/04/04 00:37:09;;;;;;;24.60;9.00;;;;;;;-0.32;63.73;100191.91;4471920;32;35021;-75
2022/04/04 00:39:55;;;;;;;27.58;10.10;;;;;;;-0.12;63.70;100181.69;4472879;32;34637;-76
2022/04/04 00:42:42;;;;;;;29.23;10.05;;;;;;;0.15;62.52;100184.06;4485120;32;34215;-76
2022/04/04 00:45:28;;;;;;;24.08;8.88;;;;;;;-0.59;62.92;100186.03;4484646;31;34654;-76
2022/04/04 00:48:15;;;;;;;31.25;10.73;;;;;;;-0.13;62.58;100192.72;4483369;32;34968;-76
2022/04/04 00:51:02;;;;;;;31.67;11.20;;;;;;;-0.32;62.63;100178.44;4471687;32;34543;-76
2022/04/04 00:53:48;;;;;;;31.83;11.93;;;;;;;0.23;61.42;100183.72;4471256;32;35216;-75
2022/04/04 00:56:36;;;;;;;36.92;12.77;;;;;;;-0.55;64.76;100181.81;4472193;32;35239;-75
2022/04/04 00:59:24;;;;;;;38.83;13.30;;;;;;;0.04;62.95;100185.66;4471154;32;35825;-75
2022/04/04 01:02:11;;;;;;;39.05;12.63;;;;;;;0.69;60.63;100178.69;4482398;32;35584;-75
2022/04/04 01:04:57;;;;;;;32.03;12.90;;;;;;;0.55;61.38;100175.38;4461635;32;35177;-75
2022/04/04 01:07:44;;;;;;;29.50;11.00;;;;;;;0.72;60.20;100183.59;4443634;32;35280;-75
2022/04/04 01:10:30;;;;;;;24.33;10.32;;;;;;;0.38;62.03;100184.13;4458053;32;34514;-75
2022/04/04 01:13:17;;;;;;;22.17;8.98;;;;;;;0.51;62.11;100182.25;4461071;32;35471;-75
2022/04/04 01:16:04;;;;;;;17.45;7.65;;;;;;;0.42;62.08;100185.28;4457267;32;33840;-75
2022/04/04 01:18:50;;;;;;;17.58;6.97;;;;;;;0.63;60.62;100172.34;4457695;32;34526;-75
2022/04/04 01:21:36;;;;;;;15.85;6.43;;;;;;;0.07;62.67;100181.69;4460272;32;35113;-75
2022/04/04 01:24:23;;;;;;;12.50;5.65;;;;;;;0.50;61.52;100181.44;4457174;32;35671;-75
2022/04/04 01:27:14;;;;;;;14.25;6.82;;;;;;;0.28;62.13;100193.81;4459220;32;34435;-76
2022/04/04 01:30:01;;;;;;;11.00;5.23;;;;;;;0.56;61.39;100191.31;4441839;32;35464;-75
2022/04/04 01:32:49;;;;;;;11.88;5.43;;;;;;;0.70;60.95;100194.59;4453612;32;34600;-74
2022/04/04 01:35:38;;;;;;;14.20;5.53;;;;;;;0.71;60.09;100193.53;4455496;32;35171;-74
2022/04/04 01:38:25;;;;;;;10.15;5.05;;;;;;;0.44;60.66;100196.66;4457527;32;34825;-74
2022/04/04 01:41:11;;;;;;;11.85;5.00;;;;;;;0.43;61.10;100194.22;4454557;32;34585;-75
2022/04/04 01:43:57;;;;;;;10.15;5.03;;;;;;;0.54;61.18;100188.03;4456190;32;36025;-74
2022/04/04 01:46:43;;;;;;;24.83;9.10;;;;;;;0.49;61.26;100189.78;4455009;32;35393;-74
2022/04/04 01:49:29;;;;;;;16.00;7.25;;;;;;;0.57;61.06;100197.50;4456205;32;34172;-74
2022/04/04 01:52:16;;;;;;;31.30;12.90;;;;;;;0.28;62.39;100196.50;4457573;32;35120;-74
2022/04/04 01:55:03;;;;;;;20.42;8.00;;;;;;;-1.12;66.86;100189.25;4458039;32;35022;-74
2022/04/04 01:57:49;;;;;;;13.55;6.32;;;;;;;0.00;62.95;100187.16;4452251;32;35579;-74
2022/04/04 02:00:36;;;;;;;19.17;7.03;;;;;;;0.31;62.00;100194.16;4452329;32;34782;-75
2022/04/04 02:03:24;;;;;;;20.92;7.72;;;;;;;0.26;62.28;100190.50;4459046;32;34606;-74
2022/04/04 02:06:11;;;;;;;16.77;7.78;;;;;;;0.25;62.43;100192.38;4453696;32;34932;-75
2022/04/04 02:08:59;;;;;;;22.17;8.93;;;;;;;0.37;61.93;100195.12;4452557;32;34345;-74
2022/04/04 02:11:45;;;;;;;26.17;8.60;;;;;;;-0.85;65.01;100193.34;4459855;32;33802;-74
2022/04/04 02:14:31;;;;;;;17.30;7.20;;;;;;;0.16;63.27;100191.06;4453383;32;35620;-74
2022/04/04 02:17:18;;;;;;;17.50;7.05;;;;;;;0.40;61.75;100184.72;4456297;32;34840;-74
2022/04/04 02:20:08;;;;;;;16.20;6.62;;;;;;;0.42;61.34;100185.28;4455937;32;35777;-74
2022/04/04 02:22:54;;;;;;;18.73;7.85;;;;;;;0.35;61.89;100181.88;4454021;32;34334;-74
2022/04/04 02:25:40;;;;;;;23.87;8.52;;;;;;;0.10;63.18;100181.22;4452679;32;34194;-74
2022/04/04 02:28:27;;;;;;;18.83;8.40;;;;;;;0.13;63.35;100183.44;4455061;32;34968;-74
2022/04/04 02:31:14;;;;;;;19.55;8.10;;;;;;;0.64;61.99;100184.75;4456996;32;34577;-74
2022/04/04 02:34:00;;;;;;;16.80;6.05;;;;;;;0.63;61.61;100185.81;4456761;32;34087;-73
2022/04/04 02:36:47;;;;;;;17.15;7.07;;;;;;;0.34;62.29;100182.94;4456490;32;34530;-73
2022/04/04 02:39:33;;;;;;;22.20;8.55;;;;;;;0.14;63.49;100188.63;4455324;32;36036;-73
2022/04/04 02:42:19;;;;;;;18.60;7.93;;;;;;;0.30;63.29;100194.41;4452321;32;36241;-74
2022/04/04 02:45:06;;;;;;;16.35;7.00;;;;;;;0.57;62.35;100186.72;4456220;32;33858;-74
2022/04/04 02:47:53;;;;;;;13.55;6.45;;;;;;;0.65;61.66;100184.53;4452545;32;34617;-73
2022/04/04 02:50:39;;;;;;;17.17;7.28;;;;;;;0.40;61.92;100192.81;4456984;32;35935;-73
2022/04/04 02:53:25;;;;;;;19.40;7.37;;;;;;;0.10;63.50;100189.31;4455330;32;35525;-73
2022/04/04 02:56:30;;;;;;;17.90;6.93;;;;;;;0.48;62.74;100193.50;4458068;32;35248;-73
2022/04/04 02:59:19;;;;;;;16.33;6.90;;;;;;;0.01;63.64;100193.37;4457443;32;34243;-73
2022/04/04 03:02:05;;;;;;;15.23;6.60;;;;;;;0.36;63.09;100191.59;4453765;32;34910;-73
2022/04/04 03:04:51;;;;;;;12.27;5.62;;;;;;;0.38;63.14;100197.59;4470850;32;35557;-73
2022/04/04 03:07:38;;;;;;;13.32;6.20;;;;;;;0.05;63.86;100195.38;4480697;32;35644;-73
2022/04/04 03:10:24;;;;;;;12.45;6.20;;;;;;;0.17;64.33;100198.09;4480632;32;34173;-73
2022/04/04 03:13:13;;;;;;;11.43;5.30;;;;;;;0.23;64.34;100197.22;4468966;32;34434;-73
2022/04/04 03:15:59;;;;;;;12.75;5.47;;;;;;;-0.01;64.93;100197.09;4468691;32;34908;-73
2022/04/04 03:18:46;;;;;;;14.23;6.00;;;;;;;0.06;65.37;100197.03;4480515;32;34365;-74
2022/04/04 03:21:32;;;;;;;11.12;5.47;;;;;;;0.05;64.72;100200.75;4480082;31;34644;-73
2022/04/04 03:24:18;;;;;;;13.27;5.82;;;;;;;-0.08;65.28;100211.72;4480218;32;34568;-73
2022/04/04 03:27:05;;;;;;;11.65;5.47;;;;;;;0.07;64.57;100197.84;4468014;32;34610;-73
2022/04/04 03:29:51;;;;;;;12.80;5.30;;;;;;;0.07;64.56;100203.22;4480924;31;32938;-73
2022/04/04 03:32:37;;;;;;;11.82;5.53;;;;;;;0.05;63.91;100203.44;4479359;32;34662;-73
2022/04/04 03:35:26;;;;;;;8.90;4.65;;;;;;;-0.10;64.36;100203.84;4480412;32;35923;-73
2022/04/04 03:38:13;;;;;;;12.27;5.43;;;;;;;-0.05;64.57;100212.09;4467884;32;34597;-73
2022/04/04 03:40:59;;;;;;;11.12;5.15;;;;;;;-0.20;65.47;100208.94;4467346;32;34172;-73
2022/04/04 03:43:46;;;;;;;12.32;5.53;;;;;;;-0.05;65.55;100216.66;4467347;32;34558;-73
2022/04/04 03:46:32;;;;;;;12.82;5.97;;;;;;;0.02;64.73;100209.28;4468159;32;34580;-73
2022/04/04 03:49:19;;;;;;;12.60;5.53;;;;;;;-0.02;64.91;100216.19;4480254;31;34677;-73
2022/04/04 03:52:06;;;;;;;12.57;5.97;;;;;;;-0.16;65.52;100220.94;4479306;32;33776;-73
2022/04/04 03:54:53;;;;;;;12.45;6.03;;;;;;;-0.49;67.07;100216.72;4479358;32;34631;-72
2022/04/04 03:57:40;;;;;;;14.90;6.70;;;;;;;-0.42;66.60;100213.19;4467445;32;34987;-72
2022/04/04 04:00:27;;;;;;;14.43;7.12;;;;;;;-0.28;66.58;100211.97;4468771;31;34822;-73
2022/04/04 04:03:13;;;;;;;15.82;7.03;;;;;;;-0.51;67.04;100224.25;4480447;32;33131;-73
2022/04/04 04:06:12;;;;;;;16.70;7.93;;;;;;;-0.50;67.51;100225.88;4447814;32;34069;-73
2022/04/04 04:08:58;;;;;;;20.00;7.72;;;;;;;-0.25;67.11;100222.28;4449411;32;35011;-73
2022/04/04 04:11:45;;;;;;;16.08;7.93;;;;;;;-0.36;66.74;100226.56;4447178;32;34653;-73
2022/04/04 04:14:32;;;;;;;17.73;8.85;;;;;;;-0.35;67.00;100224.66;4447463;32;35304;-72
2022/04/04 04:17:19;;;;;;;21.27;8.00;;;;;;;-0.24;66.72;100232.00;4447695;32;35435;-73
2022/04/04 04:20:26;;;;;;;21.80;8.07;;;;;;;-0.22;66.59;100227.22;4447508;32;34953;-73
2022/04/04 04:23:13;;;;;;;25.65;9.55;;;;;;;-0.22;66.22;100227.22;4447900;32;34621;-72
2022/04/04 04:26:00;;;;;;;25.15;9.55;;;;;;;-0.25;65.80;100222.28;4435550;32;34213;-72
2022/04/04 04:28:47;;;;;;;22.80;9.32;;;;;;;-0.32;66.12;100225.03;4435790;32;34220;-73
2022/04/04 04:31:34;;;;;;;22.08;9.80;;;;;;;-0.47;66.12;100220.03;4446865;32;34935;-72
2022/04/04 04:34:21;;;;;;;22.50;9.85;;;;;;;-0.68;67.26;100229.38;4447487;32;35369;-72
2022/04/04 04:37:07;;;;;;;20.20;9.50;;;;;;;-0.85;68.26;100222.94;4447953;32;34096;-72
2022/04/04 04:39:53;;;;;;;18.60;8.90;;;;;;;-0.97;69.65;100233.59;4448706;32;35571;-72
2022/04/04 04:42:40;;;;;;;18.37;8.80;;;;;;;-0.61;68.54;100229.31;4447372;32;34587;-72
2022/04/04 04:45:26;;;;;;;19.05;9.48;;;;;;;-0.82;68.53;100235.12;4448038;32;34255;-74
2022/04/04 04:48:14;;;;;;;23.02;8.75;;;;;;;-0.83;69.58;100230.75;4438867;32;33703;-72
2022/04/04 04:51:00;;;;;;;23.87;9.57;;;;;;;-0.59;68.29;100229.09;4448827;32;35043;-72
2022/04/04 04:53:46;;;;;;;23.95;9.68;;;;;;;-0.64;68.10;100245.09;4448928;32;35732;-73
2022/04/04 04:56:33;;;;;;;17.25;9.13;;;;;;;-0.56;68.00;100242.91;4450599;32;35472;-72
2022/04/04 04:59:19;;;;;;;24.17;9.48;;;;;;;-0.72;68.48;100238.94;4440253;32;33999;-72
2022/04/04 05:02:06;;;;;;;22.70;9.25;;;;;;;-0.80;68.98;100241.09;4448862;32;34624;-72
2022/04/04 05:04:52;;;;;;;24.33;8.80;;;;;;;-0.92;70.24;100239.12;4457819;32;36012;-72
2022/04/04 05:07:38;;;;;;;23.52;9.02;;;;;;;-0.64;69.22;100243.22;4466371;32;35260;-72
2022/04/04 05:10:24;;;;;;;19.77;8.98;;;;;;;-0.91;70.33;100240.78;4465436;32;35075;-72
2022/04/04 05:13:11;;;;;;;18.45;9.15;;;;;;;-0.82;70.50;100248.56;4465745;32;35591;-75
2022/04/04 05:15:58;;;;;;;19.15;8.80;;;;;;;-0.58;70.35;100247.69;4464878;32;36552;-75
2022/04/04 05:18:45;;;;;;;22.25;9.43;;;;;;;-0.19;68.75;100245.62;4465027;32;34150;-75
2022/04/04 05:21:31;;;;;;;22.52;10.57;;;;;;;-0.03;67.89;100241.47;4463434;32;35178;-75
2022/04/04 05:24:18;;;;;;;26.87;11.32;;;;;;;-0.19;68.58;100247.50;4464697;32;34643;-75
2022/04/04 05:27:04;;;;;;;27.73;12.00;;;;;;;0.01;68.39;100249.94;4465117;32;35012;-76
2022/04/04 05:29:50;;;;;;;23.08;10.77;;;;;;;0.02;68.49;100248.88;4453751;32;34600;-76
2022/04/04 05:32:37;;;;;;;25.95;11.65;;;;;;;0.24;68.17;100251.94;4452681;32;33991;-75
2022/04/04 05:35:23;;;;;;;28.55;11.25;;;;;;;0.16;68.05;100251.19;4463367;32;34114;-76
2022/04/04 05:38:09;;;;;;;26.90;11.52;;;;;;;0.37;67.82;100249.88;4465682;32;35084;-76
2022/04/04 05:40:56;;;;;;;26.85;10.13;;;;;;;-0.47;68.57;100263.09;4465903;32;35877;-76
2022/04/04 05:43:44;;;;;;;24.52;10.20;;;;;;;-0.28;68.45;100260.44;4464962;32;35203;-76
2022/04/04 05:46:30;;;;;;;23.95;9.05;;;;;;;-0.71;69.17;100261.31;4464430;32;34667;-76
2022/04/04 05:49:18;;;;;;;20.00;9.27;;;;;;;-1.23;70.36;100268.75;4466644;32;37560;-76
2022/04/04 05:52:04;;;;;;;16.50;7.65;;;;;;;-1.99;75.53;100278.50;4465426;32;35223;-75
2022/04/04 05:54:54;;;;;;;16.75;8.20;;;;;;;-1.20;72.77;100268.31;4464242;32;35222;-75
2022/04/04 05:57:40;;;;;;;14.43;6.80;;;;;;;-1.71;75.31;100280.00;4462057;32;34394;-74
2022/04/04 06:00:26;;;;;;;18.45;8.15;;;;;;;-0.52;71.15;100271.03;4459080;32;35974;-79
2022/04/04 06:03:13;;;;;;;14.13;6.93;;;;;;;0.00;67.18;100262.59;4466385;32;33544;-79
2022/04/04 06:06:04;;;;;;;15.70;6.82;;;;;;;0.17;64.61;100268.16;4465210;32;35885;-74
2022/04/04 06:08:51;;;;;;;16.65;6.45;;;;;;;-0.81;67.48;100266.34;4452069;32;34612;-75
2022/04/04 06:11:37;;;;;;;13.90;6.35;;;;;;;-0.13;65.62;100268.97;4466179;32;35862;-74
2022/04/04 06:14:24;;;;;;;15.27;7.05;;;;;;;-0.35;65.58;100281.22;4464112;32;34615;-76
2022/04/04 06:17:10;;;;;;;17.52;7.57;;;;;;;-0.44;65.68;100288.75;4465338;32;33683;-75
2022/04/04 06:19:56;;;;;;;15.73;7.22;;;;;;;0.34;63.00;100284.53;4465658;32;35367;-74
2022/04/04 06:22:43;;;;;;;14.00;7.50;;;;;;;0.18;63.33;100286.81;4465250;32;34847;-77
2022/04/04 06:25:29;;;;;;;12.52;6.78;;;;;;;0.68;62.18;100285.72;4462866;32;34708;-77
2022/04/04 06:28:15;;;;;;;17.30;5.62;;;;;;;0.53;61.88;100298.81;4452908;32;35088;-74
2022/04/04 06:31:03;;;;;;;12.73;5.65;;;;;;;-0.12;62.58;100297.53;4462484;32;34689;-74
2022/04/04 06:33:49;;;;;;;14.10;5.47;;;;;;;-0.26;61.79;100296.03;4464999;32;35559;-76
2022/04/04 06:36:38;;;;;;;9.82;5.40;;;;;;;-0.19;62.79;100294.09;4464115;32;34374;-75
2022/04/04 06:39:25;;;;;;;9.73;4.60;;;;;;;0.64;59.97;100295.34;4464868;32;33717;-74
2022/04/04 06:42:11;;;;;;;12.50;5.25;;;;;;;0.55;59.90;100286.75;4463229;32;34681;-79
2022/04/04 06:44:58;;;;;;;11.93;5.75;;;;;;;0.16;61.99;100296.19;4465353;32;35009;-77
2022/04/04 06:47:45;;;;;;;13.57;5.85;;;;;;;0.55;60.47;100296.72;4463350;32;34514;-75
2022/04/04 06:50:31;;;;;;;11.18;5.18;;;;;;;1.15;58.73;100293.94;4465837;32;34233;-78
2022/04/04 06:53:21;;;;;;;11.85;5.00;;;;;;;1.41;58.08;100299.94;4464644;32;34560;-77
2022/04/04 06:56:08;;;;;;;10.15;5.05;;;;;;;0.89;58.07;100293.28;4453209;32;33699;-76
2022/04/04 06:58:54;;;;;;;9.10;4.55;;;;;;;0.79;58.58;100301.13;4464356;32;34627;-77
2022/04/04 07:01:40;;;;;;;8.65;4.20;;;;;;;1.18;56.98;100306.13;4464187;32;35285;-74
2022/04/04 07:04:27;;;;;;;9.13;5.03;;;;;;;1.30;57.53;100302.38;4461642;32;34269;-77
2022/04/04 07:07:20;;;;;;;;;;;;;;;1.01;58.19;100297.91;4463459;32;35963;-78
2022/04/04 07:10:07;;;;;;;12.75;5.87;;;;;;;0.75;57.95;100301.81;4464208;32;34918;-77
2022/04/04 07:12:53;;;;;;;12.68;5.60;;;;;;;0.80;58.50;100294.69;4463656;32;35135;-79
2022/04/04 07:15:41;;;;;;;9.68;5.43;;;;;;;1.13;58.72;100293.31;4466227;32;35867;-77
2022/04/04 07:18:27;;;;;;;8.77;4.70;;;;;;;1.37;57.61;100293.34;4467572;32;34997;-77
2022/04/04 07:21:15;;;;;;;9.88;5.10;;;;;;;1.18;57.72;100296.16;4467357;32;34726;-78
2022/04/04 07:24:01;;;;;;;8.80;5.15;;;;;;;1.83;56.28;100299.81;4457352;32;34024;-82
2022/04/04 07:26:50;;;;;;;9.48;5.03;;;;;;;1.23;56.94;100293.59;4462683;32;34738;-81
2022/04/04 07:29:36;;;;;;;9.40;4.97;;;;;;;1.52;56.94;100293.72;4465477;32;34951;-74
2022/04/04 07:32:22;;;;;;;11.68;5.18;;;;;;;1.34;54.03;100300.88;4464465;32;34816;-74
2022/04/04 07:35:12;;;;;;;11.50;4.45;;;;;;;1.34;54.10;100300.06;4440878;32;33930;-75
2022/04/04 07:37:58;;;;;;;8.15;4.57;;;;;;;1.95;53.31;100306.00;4452645;32;33633;-75
2022/04/04 07:40:44;;;;;;;7.72;4.60;;;;;;;1.79;52.44;100297.59;4465896;32;35034;-74
2022/04/04 07:43:31;;;;;;;8.18;4.68;;;;;;;1.80;51.58;100299.22;4455485;32;34575;-74
2022/04/04 07:46:17;;;;;;;7.97;4.70;;;;;;;2.01;51.78;100294.25;4464748;32;33800;-72
2022/04/04 07:49:04;;;;;;;8.18;4.40;;;;;;;2.25;50.77;100295.84;4462503;32;35588;-73
2022/04/04 07:51:50;;;;;;;10.02;4.62;;;;;;;2.05;50.09;100295.41;4464972;32;35443;-75
2022/04/04 07:54:43;;;;;;;8.15;4.40;;;;;;;2.14;50.22;100293.97;4464125;32;34799;-75
2022/04/04 07:57:29;;;;;;;11.68;4.97;;;;;;;2.39;48.80;100287.41;4465364;32;35264;-76
2022/04/04 08:00:21;;;;;;;9.50;3.95;;;;;;;2.50;49.11;100291.97;4465144;32;34704;-76
2022/04/04 08:03:07;;;;;;;9.50;4.20;;;;;;;2.69;49.59;100285.28;4461758;32;35080;-75
2022/04/04 08:05:54;;;;;;;7.28;4.00;;;;;;;2.97;50.79;100280.91;4462978;32;35244;-77
2022/04/04 08:08:41;;;;;;;10.95;4.28;;;;;;;2.72;48.69;100294.81;4462862;32;33816;-76
2022/04/04 08:11:26;;;;;;;8.40;4.00;;;;;;;2.79;47.64;100283.81;4455912;32;35335;-76
2022/04/04 08:14:13;;;;;;;6.72;3.97;;;;;;;3.03;48.08;100284.53;4461174;32;34862;-77
2022/04/04 08:17:00;;;;;;;7.90;3.78;;;;;;;3.31;48.77;100280.91;4459204;32;34593;-77
2022/04/04 08:19:48;;;;;;;6.05;3.35;;;;;;;3.76;46.63;100279.94;4459920;32;34962;-77
2022/04/04 08:22:39;;;;;;;6.32;3.60;;;;;;;3.46;45.01;100278.44;4461344;32;34694;-76
2022/04/04 08:25:26;;;;;;;7.70;3.97;;;;;;;3.50;45.92;100278.75;4459764;32;35073;-76
2022/04/04 08:28:12;;;;;;;6.00;3.05;;;;;;;3.96;45.81;100272.09;4463413;32;35431;-75
2022/04/04 08:30:58;;;;;;;5.55;3.15;;;;;;;3.97;42.89;100276.41;4466379;32;32387;-73
2022/04/04 08:33:44;;;;;;;7.20;3.10;;;;;;;4.32;42.99;100268.97;4462025;32;35415;-74
2022/04/04 08:36:31;;;;;;;11.70;3.65;;;;;;;3.57;44.76;100272.09;4465456;32;34679;-74
2022/04/04 08:39:17;;;;;;;6.78;2.72;;;;;;;3.80;44.20;100268.34;4440947;32;35373;-77
2022/04/04 08:42:03;;;;;;;8.10;4.10;;;;;;;4.16;43.89;100270.69;4465248;32;33751;-77
2022/04/04 08:44:50;;;;;;;6.05;2.85;;;;;;;3.50;46.25;100268.75;4464994;32;34139;-77
2022/04/04 08:47:39;;;;;;;7.32;3.47;;;;;;;3.68;45.12;100259.50;4463272;32;35693;-77
2022/04/04 08:50:25;;;;;;;10.30;3.97;;;;;;;4.19;45.20;100260.16;4462573;32;35690;-73
2022/04/04 08:53:12;;;;;;;7.95;3.67;;;;;;;4.32;45.33;100253.50;4463299;32;34367;-72
2022/04/04 08:55:58;;;;;;;7.18;3.80;;;;;;;4.32;45.72;100252.69;4464035;32;36177;-72
2022/04/04 08:58:45;;;;;;;7.45;3.80;;;;;;;4.16;45.56;100246.28;4463527;32;34967;-75
2022/04/04 09:01:31;;;;;;;7.55;3.80;;;;;;;4.57;45.01;100235.84;4464862;32;34358;-74
2022/04/04 09:04:18;;;;;;;12.18;5.45;;;;;;;4.03;45.43;100237.44;4463258;32;35285;-75
2022/04/04 09:07:08;;;;;;;7.10;3.60;;;;;;;4.40;45.81;100246.81;4462120;32;34617;-75
2022/04/04 09:09:55;;;;;;;8.35;4.37;;;;;;;4.26;46.12;100240.97;4462972;32;35944;-72
2022/04/04 09:12:41;;;;;;;7.12;3.90;;;;;;;4.35;44.98;100231.28;4459070;32;34683;-73
2022/04/04 09:15:48;;;;;;;6.60;3.58;;;;;;;4.58;43.71;100213.91;4463493;32;33621;-75
2022/04/04 09:18:39;;;;;;;7.32;3.53;;;;;;;4.20;42.18;100228.41;4463442;32;34613;-75
2022/04/04 09:21:25;;;;;;;6.72;3.40;;;;;;;4.30;43.21;100217.69;4463608;32;35981;-74
2022/04/04 09:24:11;;;;;;;7.20;3.70;;;;;;;5.43;41.10;100202.31;4463722;32;34224;-75
2022/04/04 09:26:58;;;;;;;6.62;3.67;;;;;;;4.31;43.17;100213.91;4461385;32;34797;-76
2022/04/04 09:29:45;;;;;;;6.37;3.62;;;;;;;4.39;44.37;100210.72;4461944;32;34415;-75
2022/04/04 09:32:38;;;;;;;10.27;2.90;;;;;;;4.50;43.93;100201.62;4463706;32;35926;-75
2022/04/04 09:35:28;;;;;;;6.97;3.20;;;;;;;4.85;42.24;100202.19;4461627;32;34216;-76
2022/04/04 09:38:16;;;;;;;6.20;3.25;;;;;;;4.85;42.03;100194.03;4461898;32;33799;-75
2022/04/04 09:41:06;;;;;;;5.07;3.15;;;;;;;5.19;41.74;100198.09;4455745;32;34723;-75
2022/04/04 09:43:53;;;;;;;5.28;2.92;;;;;;;4.67;41.17;100190.63;4463627;32;34776;-75
2022/04/04 09:46:41;;;;;;;4.95;2.85;;;;;;;4.80;40.84;100183.94;4461637;32;34699;-75
2022/04/04 09:49:28;;;;;;;6.50;3.03;;;;;;;5.05;39.67;100186.03;4459293;32;35240;-75
2022/04/04 09:52:14;;;;;;;6.70;3.33;;;;;;;4.90;39.70;100175.87;4456449;32;35340;-75
2022/04/04 09:55:00;;;;;;;5.47;2.92;;;;;;;5.24;40.26;100175.56;4459770;32;35570;-75
2022/04/04 09:57:50;;;;;;;8.40;3.03;;;;;;;5.47;40.70;100176.25;4448547;32;35378;-75
2022/04/04 10:00:38;;;;;;;5.18;2.92;;;;;;;5.80;40.00;100175.84;4462590;32;34002;-77
2022/04/04 10:03:24;;;;;;;6.25;3.00;;;;;;;5.51;40.51;100155.59;4459890;32;34225;-75
2022/04/04 10:06:12;;;;;;;4.60;2.78;;;;;;;5.07;39.26;100158.63;4463354;32;34898;-75
2022/04/04 10:09:00;;;;;;;6.60;3.22;;;;;;;4.88;38.71;100156.31;4461105;32;34538;-75
2022/04/04 10:11:46;;;;;;;8.63;3.20;;;;;;;5.38;39.56;100149.56;4460653;32;33869;-75
2022/04/04 10:14:35;;;;;;;7.68;3.75;;;;;;;4.99;41.44;100148.25;4449292;32;36006;-76
2022/04/04 10:17:21;;;;;;;7.30;3.42;;;;;;;4.63;42.70;100159.63;4458889;32;34922;-74
2022/04/04 10:20:08;;;;;;;5.50;3.10;;;;;;;5.23;42.61;100154.09;4461048;32;35143;-74
2022/04/04 10:22:55;;;;;;;5.78;2.90;;;;;;;5.14;40.96;100153.75;4462893;32;33726;-75
2022/04/04 10:25:42;;;;;;;7.03;3.05;;;;;;;5.17;39.94;100140.47;4462867;32;34806;-75
2022/04/04 10:28:30;;;;;;;5.82;2.97;;;;;;;4.58;40.86;100131.63;4461688;32;36733;-77
2022/04/04 10:31:21;;;;;;;5.30;2.70;;;;;;;5.32;40.47;100133.47;4459175;32;35275;-75
2022/04/04 10:34:13;;;;;;;6.90;3.15;;;;;;;6.21;39.99;100121.59;4462219;32;34097;-75
2022/04/04 10:37:01;;;;;;;6.30;2.85;;;;;;;6.42;39.26;100118.87;4461960;32;34435;-74
2022/04/04 10:39:52;;;;;;;6.00;3.28;;;;;;;7.52;37.62;100118.13;4463829;32;33695;-75
2022/04/04 10:42:41;;;;;;;5.60;3.05;;;;;;;7.70;37.43;100121.34;4462905;32;35003;-74
2022/04/04 10:45:51;;;;;;;5.10;2.83;;;;;;;7.04;38.64;100106.84;4461845;32;34305;-74
2022/04/04 10:48:41;;;;;;;7.80;3.53;;;;;;;7.15;39.76;100107.63;4463303;32;34742;-73
2022/04/04 10:51:36;;;;;;;7.00;3.12;;;;;;;6.16;39.32;100102.53;4464396;32;36529;-74
2022/04/04 10:54:23;;;;;;;6.10;3.03;;;;;;;6.28;40.42;100100.34;4459358;32;34649;-73
2022/04/04 10:57:16;;;;;;;5.75;2.92;;;;;;;5.98;40.41;100095.69;4460658;32;34293;-72
2022/04/04 11:00:05;;;;;;;5.75;2.97;;;;;;;5.74;39.28;100103.47;4449394;32;34598;-71
2022/04/04 11:02:52;;;;;;;4.53;2.62;;;;;;;5.70;39.97;100109.75;4463878;32;35011;-71
2022/04/04 11:09:14;;;;;;;6.47;3.00;;;;;;;5.58;39.21;100096.38;4451979;32;34191;-70
2022/04/04 11:12:01;;;;;;;5.45;2.95;;;;;;;5.47;40.39;100098.25;4455623;32;34649;-71
2022/04/04 11:14:54;;;;;;;6.97;2.83;;;;;;;5.49;39.84;100087.91;4449063;32;34582;-72
2022/04/04 11:18:00;;;;;;;6.07;3.42;;;;;;;5.91;40.71;100081.50;4452733;32;34412;-73
2022/04/04 11:20:51;;;;;;;5.62;3.20;;;;;;;6.07;40.81;100082.38;4453686;32;33746;-74
2022/04/04 11:23:38;;;;;;;5.60;2.75;;;;;;;5.41;40.43;100097.41;4448954;32;34717;-73
2022/04/04 11:26:25;;;;;;;7.50;2.97;;;;;;;5.39;40.88;100087.87;4450139;32;34518;-72
2022/04/04 11:29:12;;;;;;;7.57;3.35;;;;;;;5.75;41.40;100085.25;4444791;32;34683;-72
2022/04/04 11:31:59;;;;;;;6.25;3.28;;;;;;;6.17;40.80;100082.38;4444731;32;33528;-72
2022/04/04 11:34:46;;;;;;;7.93;3.20;;;;;;;7.07;38.55;100076.31;4448396;32;35299;-73
2022/04/04 11:37:43;;;;;;;8.90;4.00;;;;;;;6.20;41.34;100070.13;4452894;32;35141;-72
2022/04/04 11:40:37;;;;;;;7.78;3.62;;;;;;;6.16;44.02;100074.50;4447588;32;34677;-71
2022/04/04 11:43:25;;;;;;;7.72;4.00;;;;;;;6.03;44.11;100071.25;4449467;32;34112;-72
2022/04/04 11:46:14;;;;;;;7.45;4.00;;;;;;;6.46;43.88;100063.63;4452035;32;35650;-73
2022/04/04 11:49:02;;;;;;;8.63;4.03;;;;;;;6.65;43.24;100066.59;4456648;32;34924;-72
2022/04/04 11:51:49;;;;;;;7.20;3.72;;;;;;;5.59;44.45;100065.38;4454902;32;35077;-72
2022/04/04 11:54:40;;;;;;;8.45;3.45;;;;;;;5.52;45.29;100065.66;4447392;32;34222;-71
2022/04/04 11:57:26;;;;;;;7.05;3.60;;;;;;;5.56;44.84;100065.94;4456198;32;35242;-73
2022/04/04 12:00:16;;;;;;;10.18;3.87;;;;;;;5.78;45.27;100054.84;4457516;32;34871;-74
2022/04/04 12:03:13;;;;;;;6.68;4.00;;;;;;;5.83;44.94;100046.66;4451828;32;34645;-73
2022/04/04 12:06:06;;;;;;;6.30;3.45;;;;;;;6.20;45.59;100042.94;4453188;32;34215;-72
2022/04/04 12:08:55;;;;;;;6.10;3.83;;;;;;;6.26;44.46;100031.78;4456564;32;36234;-71
2022/04/04 12:11:41;;;;;;;6.68;3.45;;;;;;;5.68;46.26;100033.06;4448055;32;34926;-71
2022/04/04 12:14:37;;;;;;;6.57;3.70;;;;;;;6.14;45.72;100016.81;4449190;32;34699;-71
2022/04/04 12:17:24;;;;;;;9.27;4.10;;;;;;;6.13;44.97;100032.31;4440667;32;34066;-72
2022/04/04 12:20:11;;;;;;;7.95;4.37;;;;;;;5.86;44.85;100022.50;4451197;32;34710;-72
2022/04/04 12:26:07;;;;;;;7.40;3.95;;;;;;;6.11;44.16;100011.91;4457543;32;34388;-72
2022/04/04 12:28:53;;;;;;;7.55;4.30;;;;;;;5.93;45.68;99999.66;4451174;32;34121;-72
2022/04/04 12:31:53;;;;;;;7.10;4.22;;;;;;;5.75;44.92;99990.94;4456205;32;34646;-72
2022/04/04 12:34:39;;;;;;;6.10;3.50;;;;;;;7.37;44.69;99976.41;4452918;32;35912;-74
2022/04/04 12:37:38;;;;;;;8.07;4.32;;;;;;;7.97;41.63;99966.22;4457363;32;35733;-75
2022/04/04 12:40:25;;;;;;;6.85;3.87;;;;;;;7.77;41.63;99967.19;4451155;32;34000;-74
2022/04/04 12:43:12;;;;;;;6.95;4.22;;;;;;;7.33;41.02;99967.19;4442327;32;34468;-74
2022/04/04 12:45:58;;;;;;;8.00;4.10;;;;;;;8.10;40.56;99959.25;4453426;32;36665;-75
2022/04/04 12:48:45;;;;;;;8.52;4.45;;;;;;;9.00;41.29;99961.34;4450247;32;36604;-75
2022/04/04 12:51:31;;;;;;;6.43;4.05;;;;;;;6.35;44.56;99957.75;4455618;32;35066;-74
2022/04/04 12:54:31;;;;;;;7.43;4.15;;;;;;;5.78;45.18;99955.03;4456716;32;34301;-75
2022/04/04 12:57:26;;;;;;;7.43;4.12;;;;;;;6.73;44.77;99942.69;4459736;32;35997;-74
2022/04/04 13:00:35;;;;;;;8.13;4.43;;;;;;;6.79;43.48;99947.00;4437860;32;34669;-74
2022/04/04 13:03:27;;;;;;;6.53;3.80;;;;;;;7.13;43.79;99941.66;4449574;32;34381;-73
2022/04/04 13:06:16;;;;;;;7.20;3.62;;;;;;;6.91;43.85;99936.59;4469429;31;33746;-75
2022/04/04 13:09:03;;;;;;;9.43;4.00;;;;;;;7.12;42.01;99933.78;4479898;31;35008;-76